createdAt,value
2022-10-23T00:01:13.715Z,15.90
2022-10-23T00:03:41.558Z,15.90
2022-10-23T00:06:11.598Z,15.80
2022-10-23T00:08:40.190Z,15.90
2022-10-23T00:11:09.304Z,15.80
2022-10-23T00:13:37.537Z,15.60
2022-10-23T00:16:06.114Z,15.60
2022-10-23T00:18:34.221Z,15.80
2022-10-23T00:21:02.573Z,15.60
2022-10-23T00:23:31.831Z,15.50
2022-10-23T00:26:00.170Z,15.50
2022-10-23T00:28:28.409Z,15.50
2022-10-23T00:30:56.307Z,15.60
2022-10-23T00:33:24.172Z,15.50
2022-10-23T00:35:52.053Z,15.60
2022-10-23T00:38:19.916Z,15.70
2022-10-23T00:43:19.789Z,15.80
2022-10-23T00:45:47.750Z,15.80
2022-10-23T00:48:15.747Z,15.80
2022-10-23T00:50:43.873Z,15.90
2022-10-23T00:53:13.875Z,15.90
2022-10-23T00:55:46.708Z,15.90
2022-10-23T00:58:17.108Z,15.90
2022-10-23T01:00:47.802Z,15.90
2022-10-23T01:03:18.125Z,15.80
2022-10-23T01:05:51.893Z,15.80
2022-10-23T01:08:29.559Z,15.80
2022-10-23T01:11:03.723Z,15.80
2022-10-23T01:13:40.918Z,15.80
2022-10-23T01:16:15.939Z,15.80
2022-10-23T01:18:48.940Z,15.80
2022-10-23T01:21:23.537Z,15.80
2022-10-23T01:24:13.288Z,15.90
2022-10-23T01:27:20.736Z,15.90
2022-10-23T01:29:59.036Z,15.90
2022-10-23T01:32:35.068Z,15.90
2022-10-23T01:35:08.776Z,15.90
2022-10-23T01:37:41.286Z,15.90
2022-10-23T01:40:14.547Z,15.90
2022-10-23T01:42:49.304Z,15.90
2022-10-23T01:45:22.517Z,15.70
2022-10-23T01:47:51.757Z,15.40
2022-10-23T01:50:22.474Z,15.40
2022-10-23T01:52:50.407Z,15.40
2022-10-23T01:55:18.968Z,15.50
2022-10-23T01:57:50.126Z,15.60
2022-10-23T02:00:20.713Z,15.60
2022-10-23T02:02:51.328Z,15.50
2022-10-23T02:05:23.124Z,15.50
2022-10-23T02:07:51.605Z,15.60
2022-10-23T02:10:21.124Z,15.70
2022-10-23T02:12:57.895Z,15.70
2022-10-23T02:15:31.853Z,15.70
2022-10-23T02:18:09.559Z,15.50
2022-10-23T02:20:41.061Z,15.40
2022-10-23T02:23:20.281Z,15.30
2022-10-23T02:25:54.778Z,15.20
2022-10-23T02:28:30.539Z,15.20
2022-10-23T02:31:00.775Z,15.30
2022-10-23T02:33:31.303Z,15.40
2022-10-23T02:35:59.227Z,15.50
2022-10-23T02:38:36.323Z,15.60
2022-10-23T02:41:20.418Z,15.60
2022-10-23T02:44:03.126Z,15.70
2022-10-23T02:46:38.438Z,15.70
2022-10-23T02:49:14.428Z,15.70
2022-10-23T02:51:55.515Z,15.50
2022-10-23T02:54:33.766Z,15.40
2022-10-23T02:57:06.793Z,15.20
2022-10-23T02:59:42.272Z,15.10
2022-10-23T03:02:19.076Z,15.00
2022-10-23T03:04:48.024Z,15.00
2022-10-23T03:07:18.947Z,14.90
2022-10-23T03:09:47.119Z,14.90
2022-10-23T03:12:15.108Z,14.90
2022-10-23T03:14:44.324Z,14.90
2022-10-23T03:17:12.254Z,15.00
2022-10-23T03:19:40.127Z,15.00
2022-10-23T03:22:08.104Z,15.00
2022-10-23T03:24:36.051Z,15.10
2022-10-23T03:27:03.922Z,15.10
2022-10-23T03:29:31.805Z,15.00
2022-10-23T03:32:01.109Z,14.90
2022-10-23T03:34:28.988Z,14.90
2022-10-23T03:36:56.891Z,14.80
2022-10-23T03:39:24.834Z,15.00
2022-10-23T03:41:52.720Z,15.00
2022-10-23T03:44:20.749Z,15.00
2022-10-23T03:46:48.611Z,15.10
2022-10-23T03:49:17.915Z,15.10
2022-10-23T03:51:51.869Z,15.20
2022-10-23T03:54:21.376Z,15.10
2022-10-23T03:56:52.434Z,15.00
2022-10-23T03:59:23.229Z,14.80
2022-10-23T04:01:51.234Z,14.70
2022-10-23T04:04:20.557Z,14.70
2022-10-23T04:06:48.470Z,14.60
2022-10-23T04:09:16.489Z,14.70
2022-10-23T04:11:44.396Z,14.40
2022-10-23T04:14:14.018Z,14.30
2022-10-23T04:16:42.077Z,14.20
2022-10-23T04:19:10.155Z,14.40
2022-10-23T04:21:39.395Z,14.60
2022-10-23T04:24:07.892Z,14.70
2022-10-23T04:26:36.056Z,14.80
2022-10-23T04:29:03.966Z,14.90
2022-10-23T04:31:31.902Z,15.00
2022-10-23T04:33:59.822Z,15.00
2022-10-23T04:36:27.738Z,15.00
2022-10-23T04:38:56.969Z,15.10
2022-10-23T04:41:24.856Z,15.00
2022-10-23T04:43:52.728Z,14.90
2022-10-23T04:46:20.618Z,15.00
2022-10-23T04:48:48.461Z,15.00
2022-10-23T04:51:16.366Z,14.80
2022-10-23T04:53:44.265Z,14.90
2022-10-23T04:56:15.260Z,15.00
2022-10-23T04:58:43.724Z,15.20
2022-10-23T05:01:11.995Z,15.30
2022-10-23T05:03:40.008Z,15.40
2022-10-23T05:06:08.262Z,15.50
2022-10-23T05:08:36.807Z,15.60
2022-10-23T05:11:05.280Z,15.70
2022-10-23T05:13:34.568Z,15.60
2022-10-23T05:16:02.461Z,15.60
2022-10-23T05:18:34.088Z,15.60
2022-10-23T05:21:07.406Z,15.40
2022-10-23T05:23:37.840Z,15.40
2022-10-23T05:26:06.107Z,15.40
2022-10-23T05:28:35.769Z,15.30
2022-10-23T05:31:05.944Z,15.30
2022-10-23T05:33:36.075Z,15.40
2022-10-23T05:36:04.780Z,15.50
2022-10-23T05:38:35.785Z,15.50
2022-10-23T05:41:03.730Z,15.50
2022-10-23T05:43:31.642Z,15.60
2022-10-23T05:46:00.885Z,15.70
2022-10-23T05:48:34.777Z,15.90
2022-10-23T05:51:07.177Z,15.80
2022-10-23T05:53:37.435Z,15.80
2022-10-23T05:56:09.171Z,15.60
2022-10-23T05:58:37.094Z,15.70
2022-10-23T06:01:11.553Z,15.70
2022-10-23T06:03:39.974Z,15.70
2022-10-23T06:06:08.379Z,15.60
2022-10-23T06:08:36.693Z,15.50
2022-10-23T06:11:09.017Z,15.10
2022-10-23T06:13:36.930Z,15.00
2022-10-23T06:16:14.330Z,15.20
2022-10-23T06:18:42.544Z,15.20
2022-10-23T06:21:10.680Z,15.30
2022-10-23T06:23:39.832Z,15.20
2022-10-23T06:26:09.921Z,15.30
2022-10-23T06:28:38.033Z,15.10
2022-10-23T06:31:06.731Z,15.00
2022-10-23T06:33:36.516Z,15.10
2022-10-23T06:36:05.508Z,15.10
2022-10-23T06:38:36.792Z,14.80
2022-10-23T06:41:05.672Z,14.80
2022-10-23T06:43:33.539Z,14.80
2022-10-23T06:46:02.746Z,14.90
2022-10-23T06:48:30.999Z,14.90
2022-10-23T06:51:04.704Z,14.90
2022-10-23T06:53:32.554Z,14.90
2022-10-23T06:56:01.272Z,14.90
2022-10-23T06:58:29.687Z,14.80
2022-10-23T07:01:00.754Z,14.70
2022-10-23T07:03:28.853Z,14.80
2022-10-23T07:05:56.768Z,14.80
2022-10-23T07:08:25.986Z,14.90
2022-10-23T07:10:53.860Z,14.80
2022-10-23T07:13:22.341Z,14.60
2022-10-23T07:15:50.145Z,14.50
2022-10-23T07:18:19.368Z,14.40
2022-10-23T07:20:49.363Z,14.40
2022-10-23T07:23:17.298Z,14.50
2022-10-23T07:25:46.454Z,14.60
2022-10-23T07:28:14.236Z,14.60
2022-10-23T07:30:42.871Z,14.40
2022-10-23T07:33:12.367Z,14.40
2022-10-23T07:35:41.019Z,14.30
2022-10-23T07:38:08.919Z,14.30
2022-10-23T07:40:36.700Z,14.30
2022-10-23T07:43:05.893Z,14.40
2022-10-23T07:45:36.545Z,14.50
2022-10-23T07:48:04.488Z,14.50
2022-10-23T07:50:32.309Z,14.40
2022-10-23T07:53:00.211Z,14.40
2022-10-23T07:55:28.018Z,14.50
2022-10-23T07:57:55.825Z,14.60
2022-10-23T08:02:57.737Z,14.60
2022-10-23T08:05:25.827Z,14.60
2022-10-23T08:07:53.644Z,14.60
2022-10-23T08:10:21.462Z,14.60
2022-10-23T08:12:49.238Z,14.60
2022-10-23T08:15:17.444Z,14.60
2022-10-23T08:17:46.635Z,14.60
2022-10-23T08:20:14.519Z,14.70
2022-10-23T08:22:42.387Z,14.70
2022-10-23T08:25:10.947Z,14.80
2022-10-23T08:27:39.678Z,14.80
2022-10-23T08:30:08.426Z,14.80
2022-10-23T08:32:36.294Z,14.80
2022-10-23T08:35:08.416Z,14.90
2022-10-23T08:37:36.288Z,14.80
2022-10-23T08:40:04.615Z,14.80
2022-10-23T08:42:38.032Z,14.80
2022-10-23T08:45:09.551Z,14.80
2022-10-23T08:47:42.148Z,14.70
2022-10-23T08:50:21.533Z,14.70
2022-10-23T08:52:53.341Z,14.70
2022-10-23T08:55:27.325Z,14.70
2022-10-23T08:58:01.598Z,14.80
2022-10-23T09:00:30.022Z,14.80
2022-10-23T09:02:58.232Z,14.90
2022-10-23T09:05:32.985Z,15.10
2022-10-23T09:08:23.569Z,15.20
2022-10-23T09:11:05.400Z,15.20
2022-10-23T09:13:48.387Z,15.20
2022-10-23T09:16:23.624Z,15.30
2022-10-23T09:18:52.650Z,15.30
2022-10-23T09:21:21.900Z,15.40
2022-10-23T09:23:49.741Z,15.50
2022-10-23T09:26:19.243Z,15.60
2022-10-23T09:28:49.204Z,15.50
2022-10-23T09:31:18.671Z,15.50
2022-10-23T09:33:55.829Z,15.50
2022-10-23T09:36:28.965Z,15.50
2022-10-23T09:38:59.813Z,15.60
2022-10-23T09:41:30.699Z,15.60
2022-10-23T09:44:03.415Z,15.70
2022-10-23T09:46:41.362Z,15.80
2022-10-23T09:49:18.194Z,15.80
2022-10-23T09:52:00.376Z,15.90
2022-10-23T09:54:29.266Z,15.90
2022-10-23T09:56:58.599Z,15.90
2022-10-23T09:59:30.452Z,15.90
2022-10-23T10:02:00.614Z,15.90
2022-10-23T10:04:36.426Z,16.00
2022-10-23T10:07:07.712Z,16.00
2022-10-23T10:09:35.587Z,16.00
2022-10-23T10:12:22.589Z,16.00
2022-10-23T10:14:58.988Z,16.10
2022-10-23T10:17:36.113Z,16.10
2022-10-23T10:20:35.054Z,16.20
2022-10-23T10:23:11.316Z,16.20
2022-10-23T10:25:51.287Z,16.30
2022-10-23T10:28:32.794Z,16.30
2022-10-23T10:31:13.940Z,16.30
2022-10-23T10:33:49.924Z,16.40
2022-10-23T10:36:33.787Z,16.50
2022-10-23T10:39:04.835Z,16.50
2022-10-23T10:42:02.133Z,16.50
2022-10-23T10:44:43.527Z,16.50
2022-10-23T10:47:21.250Z,16.60
2022-10-23T10:50:00.445Z,16.70
2022-10-23T10:52:48.272Z,16.80
2022-10-23T10:55:25.237Z,16.80
2022-10-23T10:57:59.948Z,16.90
2022-10-23T11:00:31.236Z,16.90
2022-10-23T11:03:02.612Z,17.00
2022-10-23T11:05:33.879Z,16.90
2022-10-23T11:08:08.133Z,17.00
2022-10-23T11:10:41.916Z,17.00
2022-10-23T11:13:25.797Z,17.00
2022-10-23T11:15:55.551Z,17.00
2022-10-23T11:18:28.343Z,16.90
2022-10-23T11:21:08.238Z,16.90
2022-10-23T11:24:14.013Z,17.00
2022-10-23T11:26:55.050Z,17.00
2022-10-23T11:30:02.075Z,17.00
2022-10-23T11:32:51.703Z,17.00
2022-10-23T11:35:37.845Z,17.00
2022-10-23T11:38:16.394Z,17.00
2022-10-23T11:40:47.146Z,17.00
2022-10-23T11:43:27.882Z,17.10
2022-10-23T11:45:55.969Z,17.10
2022-10-23T11:48:36.120Z,17.20
2022-10-23T11:51:05.391Z,17.20
2022-10-23T11:53:41.129Z,17.20
2022-10-23T11:56:25.762Z,17.20
2022-10-23T11:58:57.247Z,17.20
2022-10-23T12:01:32.291Z,17.30
2022-10-23T12:04:03.851Z,17.30
2022-10-23T12:06:38.995Z,17.30
2022-10-23T12:09:22.843Z,17.30
2022-10-23T12:12:02.428Z,17.40
2022-10-23T12:14:34.454Z,17.50
2022-10-23T12:17:02.920Z,17.50
2022-10-23T12:19:45.383Z,17.60
2022-10-23T12:22:13.229Z,17.60
2022-10-23T12:24:54.710Z,17.60
2022-10-23T12:27:31.432Z,17.70
2022-10-23T12:30:15.291Z,17.70
2022-10-23T12:32:54.275Z,17.80
2022-10-23T12:36:00.595Z,17.80
2022-10-23T12:38:33.889Z,17.90
2022-10-23T12:41:13.822Z,17.90
2022-10-23T12:43:43.618Z,18.00
2022-10-23T12:46:29.989Z,18.10
2022-10-23T12:48:58.940Z,18.30
2022-10-23T12:51:28.677Z,18.30
2022-10-23T12:53:56.846Z,18.40
2022-10-23T12:56:28.547Z,18.40
2022-10-23T12:59:01.348Z,18.40
2022-10-23T13:01:32.475Z,18.50
2022-10-23T13:04:06.571Z,18.60
2022-10-23T13:06:34.706Z,18.70
2022-10-23T13:09:02.608Z,18.80
2022-10-23T13:11:31.699Z,18.90
2022-10-23T13:13:59.657Z,18.90
2022-10-23T13:16:28.125Z,19.00
2022-10-23T13:18:57.351Z,19.10
2022-10-23T13:21:28.467Z,19.00
2022-10-23T13:23:57.321Z,19.10
2022-10-23T13:26:31.346Z,19.20
2022-10-23T13:28:59.803Z,19.30
2022-10-23T13:31:31.163Z,19.30
2022-10-23T13:34:17.209Z,19.40
2022-10-23T13:36:59.658Z,19.50
2022-10-23T13:39:30.598Z,19.70
2022-10-23T13:42:02.499Z,19.70
2022-10-23T13:44:30.343Z,19.80
2022-10-23T13:46:58.192Z,19.80
2022-10-23T13:49:27.398Z,19.80
2022-10-23T13:51:56.491Z,19.80
2022-10-23T13:56:56.576Z,19.60
2022-10-23T13:59:24.544Z,19.60
2022-10-23T14:01:53.022Z,19.60
2022-10-23T14:04:23.598Z,19.50
2022-10-23T14:06:58.713Z,19.50
2022-10-23T14:09:27.025Z,19.50
2022-10-23T14:11:54.942Z,19.50
2022-10-23T14:14:22.830Z,19.40
2022-10-23T14:16:52.687Z,19.50
2022-10-23T14:19:20.535Z,19.40
2022-10-23T14:21:48.370Z,19.40
2022-10-23T14:24:17.641Z,19.50
2022-10-23T14:26:45.517Z,19.60
2022-10-23T14:29:21.371Z,19.50
2022-10-23T14:31:51.066Z,19.60
2022-10-23T14:34:19.000Z,19.50
2022-10-23T14:36:56.696Z,19.50
2022-10-23T14:39:33.271Z,19.60
2022-10-23T14:42:01.112Z,19.50
2022-10-23T14:44:29.020Z,19.50
2022-10-23T14:46:56.897Z,19.60
2022-10-23T14:49:24.726Z,19.60
2022-10-23T14:51:52.569Z,19.60
2022-10-23T14:54:20.437Z,19.70
2022-10-23T14:56:49.661Z,19.70
2022-10-23T14:59:17.554Z,19.80
2022-10-23T15:01:48.462Z,19.90
2022-10-23T15:04:16.693Z,19.90
2022-10-23T15:06:46.214Z,19.80
2022-10-23T15:09:14.402Z,19.80
2022-10-23T15:11:42.435Z,19.80
2022-10-23T15:14:11.831Z,19.80
2022-10-23T15:16:42.001Z,19.80
2022-10-23T15:19:13.660Z,19.80
2022-10-23T15:21:45.224Z,19.80
2022-10-23T15:24:13.084Z,19.80
2022-10-23T15:26:42.951Z,19.80
2022-10-23T15:29:14.346Z,19.80
2022-10-23T15:31:56.580Z,19.80
2022-10-23T15:34:26.688Z,19.90
2022-10-23T15:36:56.058Z,20.00
2022-10-23T15:39:25.806Z,20.20
2022-10-23T15:41:55.836Z,20.30
2022-10-23T15:44:26.884Z,20.50
2022-10-23T15:46:56.861Z,20.60
2022-10-23T15:49:25.709Z,20.90
2022-10-23T15:51:54.182Z,21.10
2022-10-23T15:54:22.905Z,21.00
2022-10-23T15:56:52.877Z,20.90
2022-10-23T15:59:23.022Z,20.70
2022-10-23T16:01:52.961Z,20.50
2022-10-23T16:04:20.981Z,20.50
2022-10-23T16:06:49.682Z,20.60
2022-10-23T16:09:17.948Z,20.80
2022-10-23T16:11:46.181Z,20.90
2022-10-23T16:14:16.513Z,21.00
2022-10-23T16:16:44.663Z,21.00
2022-10-23T16:19:14.134Z,20.80
2022-10-23T16:21:42.910Z,20.60
2022-10-23T16:24:11.251Z,20.60
2022-10-23T16:26:39.401Z,20.50
2022-10-23T16:29:09.468Z,20.60
2022-10-23T16:31:37.447Z,20.60
2022-10-23T16:34:06.657Z,20.60
2022-10-23T16:36:38.862Z,20.60
2022-10-23T16:39:07.809Z,20.70
2022-10-23T16:41:35.985Z,20.80
2022-10-23T16:44:04.218Z,20.70
2022-10-23T16:46:32.151Z,20.70
2022-10-23T16:49:00.004Z,20.70
2022-10-23T16:51:28.234Z,20.70
2022-10-23T16:53:57.438Z,20.80
2022-10-23T16:56:28.630Z,20.80
2022-10-23T17:01:31.914Z,20.60
2022-10-23T17:04:00.261Z,20.50
2022-10-23T17:06:30.279Z,20.50
2022-10-23T17:09:00.734Z,20.50
2022-10-23T17:11:30.094Z,20.50
2022-10-23T17:14:00.285Z,20.70
2022-10-23T17:16:30.124Z,20.70
2022-10-23T17:18:58.518Z,20.80
2022-10-23T17:21:26.386Z,20.80
2022-10-23T17:23:54.536Z,20.90
2022-10-23T17:26:24.118Z,21.00
2022-10-23T17:28:52.070Z,21.00
2022-10-23T17:31:22.513Z,20.90
2022-10-23T17:33:52.993Z,20.70
2022-10-23T17:36:22.601Z,20.50
2022-10-23T17:38:50.703Z,20.30
2022-10-23T17:41:20.344Z,19.90
2022-10-23T17:43:49.884Z,19.50
2022-10-23T17:46:18.849Z,19.40
2022-10-23T17:48:46.736Z,19.30
2022-10-23T17:51:17.178Z,19.40
2022-10-23T17:53:47.073Z,19.50
2022-10-23T17:56:19.102Z,19.50
2022-10-23T17:58:48.983Z,19.30
2022-10-23T18:01:20.803Z,19.40
2022-10-23T18:03:48.737Z,19.30
2022-10-23T18:06:19.189Z,19.40
2022-10-23T18:08:47.647Z,19.50
2022-10-23T18:11:17.187Z,19.50
2022-10-23T18:13:45.286Z,19.60
2022-10-23T18:16:15.686Z,19.50
2022-10-23T18:18:48.006Z,19.50
2022-10-23T18:21:17.115Z,19.60
2022-10-23T18:23:45.059Z,19.60
2022-10-23T18:26:17.621Z,19.50
2022-10-23T18:28:45.805Z,19.50
2022-10-23T18:31:17.195Z,19.40
2022-10-23T18:33:45.579Z,19.30
2022-10-23T18:36:15.255Z,19.10
2022-10-23T18:38:43.181Z,19.10
2022-10-23T18:41:11.070Z,19.10
2022-10-23T18:43:43.743Z,18.90
2022-10-23T18:46:12.286Z,18.70
2022-10-23T18:48:41.745Z,18.80
2022-10-23T18:51:15.836Z,18.70
2022-10-23T18:53:46.534Z,18.70
2022-10-23T18:56:15.335Z,18.80
2022-10-23T18:58:43.323Z,18.70
2022-10-23T19:01:11.652Z,18.80
2022-10-23T19:03:40.996Z,18.80
2022-10-23T19:06:09.602Z,18.90
2022-10-23T19:08:37.935Z,19.00
2022-10-23T19:11:07.316Z,19.00
2022-10-23T19:13:38.971Z,18.90
2022-10-23T19:16:09.827Z,19.00
2022-10-23T19:18:39.150Z,19.00
2022-10-23T19:21:08.624Z,19.00
2022-10-23T19:23:37.347Z,19.00
2022-10-23T19:26:08.694Z,19.10
2022-10-23T19:28:37.906Z,19.00
2022-10-23T19:31:07.539Z,18.90
2022-10-23T19:33:36.117Z,18.90
2022-10-23T19:36:05.713Z,18.80
2022-10-23T19:38:36.029Z,18.70
2022-10-23T19:41:04.695Z,18.70
2022-10-23T19:43:32.542Z,18.90
2022-10-23T19:46:04.026Z,19.10
2022-10-23T19:48:34.409Z,19.20
2022-10-23T19:51:02.270Z,19.30
2022-10-23T19:53:30.116Z,19.50
2022-10-23T19:56:05.208Z,19.70
2022-10-23T19:58:33.078Z,19.80
2022-10-23T20:01:08.648Z,19.80
2022-10-23T20:03:36.683Z,19.90
2022-10-23T20:06:04.831Z,20.00
2022-10-23T20:08:35.046Z,19.80
2022-10-23T20:11:04.933Z,19.90
2022-10-23T20:13:32.999Z,20.00
2022-10-23T20:16:00.943Z,19.70
2022-10-23T20:18:28.999Z,19.90
2022-10-23T20:20:56.855Z,20.00
2022-10-23T20:23:25.563Z,20.00
2022-10-23T20:25:53.405Z,19.90
2022-10-23T20:28:23.812Z,19.80
2022-10-23T20:30:51.680Z,19.90
2022-10-23T20:33:19.533Z,19.90
2022-10-23T20:35:47.394Z,19.90
2022-10-23T20:38:15.312Z,19.90
2022-10-23T20:40:43.188Z,19.90
2022-10-23T20:43:11.043Z,19.90
2022-10-23T20:45:40.236Z,20.00
2022-10-23T20:48:08.607Z,20.00
2022-10-23T20:50:36.502Z,19.80
2022-10-23T20:53:04.596Z,19.90
2022-10-23T20:55:32.468Z,19.90
2022-10-23T20:58:00.367Z,19.90
2022-10-23T21:00:28.244Z,19.90
2022-10-23T21:02:57.673Z,19.90
2022-10-23T21:05:25.608Z,19.90
2022-10-23T21:07:53.482Z,19.80
2022-10-23T21:10:21.347Z,19.80
2022-10-23T21:12:49.219Z,19.80
2022-10-23T21:15:17.317Z,19.80
2022-10-23T21:17:46.212Z,19.70
2022-10-23T21:20:17.035Z,19.60
2022-10-23T21:22:45.296Z,19.60
2022-10-23T21:25:13.331Z,19.60
2022-10-23T21:27:41.373Z,19.50
2022-10-23T21:30:10.774Z,19.60
2022-10-23T21:32:40.167Z,19.60
2022-10-23T21:35:09.531Z,19.60
2022-10-23T21:37:38.735Z,19.60
2022-10-23T21:40:08.038Z,19.60
2022-10-23T21:42:35.911Z,19.60
2022-10-23T21:45:03.908Z,19.70
2022-10-23T21:47:31.764Z,19.70
2022-10-23T21:49:59.616Z,19.60
2022-10-23T21:52:27.484Z,19.60
2022-10-23T21:54:56.754Z,19.60
2022-10-23T21:57:24.691Z,19.50
2022-10-23T21:59:55.272Z,19.50
2022-10-23T22:02:23.247Z,19.30
2022-10-23T22:04:51.175Z,19.30
2022-10-23T22:07:19.373Z,19.20
2022-10-23T22:09:47.290Z,19.10
2022-10-23T22:12:16.526Z,19.10
2022-10-23T22:14:44.643Z,19.10
2022-10-23T22:17:12.514Z,19.10
2022-10-23T22:19:40.368Z,19.20
2022-10-23T22:22:08.263Z,19.10
2022-10-23T22:24:37.010Z,19.20
2022-10-23T22:27:05.004Z,19.20
2022-10-23T22:29:34.255Z,19.20
2022-10-23T22:32:02.099Z,19.20
2022-10-23T22:34:51.805Z,19.10
2022-10-23T22:37:19.077Z,19.10
2022-10-23T22:39:46.956Z,19.00
2022-10-23T22:42:14.826Z,18.90
2022-10-23T22:44:44.018Z,18.90
2022-10-23T22:47:11.921Z,19.00
2022-10-23T22:49:39.783Z,19.00
2022-10-23T22:52:07.656Z,18.90
2022-10-23T22:54:35.678Z,19.00
2022-10-23T22:57:03.524Z,18.90
2022-10-23T22:59:31.400Z,18.90
2022-10-23T23:02:00.643Z,18.90
2022-10-23T23:04:43.818Z,19.00
2022-10-23T23:07:13.162Z,19.00
2022-10-23T23:09:42.846Z,19.00
2022-10-23T23:12:13.769Z,19.00
2022-10-23T23:14:42.173Z,19.00
2022-10-23T23:17:12.495Z,19.00
2022-10-23T23:19:40.569Z,19.00
2022-10-23T23:22:08.602Z,19.10
2022-10-23T23:24:36.467Z,18.90
2022-10-23T23:27:04.407Z,18.80
2022-10-23T23:29:32.301Z,18.80
2022-10-23T23:32:00.182Z,18.80
2022-10-23T23:34:30.012Z,18.90
2022-10-23T23:36:57.882Z,18.80
2022-10-23T23:39:26.011Z,18.70
2022-10-23T23:41:53.890Z,18.70
2022-10-23T23:44:21.747Z,18.60
2022-10-23T23:46:49.595Z,18.60
2022-10-23T23:49:17.487Z,18.60
2022-10-23T23:51:46.718Z,18.60
2022-10-23T23:54:14.631Z,18.70
2022-10-23T23:56:42.503Z,18.60
2022-10-23T23:59:10.339Z,18.70
